createdAt,value
2019-05-05T00:09:25.355Z,4.50
2019-05-05T00:24:34.870Z,6.13
2019-05-05T00:39:42.185Z,5.60
2019-05-05T00:54:49.907Z,4.67
2019-05-05T01:09:58.328Z,4.60
2019-05-05T01:25:06.204Z,5.37
2019-05-05T01:40:37.374Z,4.73
2019-05-05T01:55:45.334Z,4.53
2019-05-05T02:10:54.791Z,5.00
2019-05-05T02:26:04.629Z,5.07
2019-05-05T02:41:15.436Z,5.23
2019-05-05T02:56:27.377Z,4.57
2019-05-05T03:11:35.971Z,4.70
2019-05-05T03:26:44.449Z,13.10
2019-05-05T03:42:29.299Z,5.60
2019-05-05T03:57:37.520Z,4.73
2019-05-05T04:12:45.603Z,7.27
2019-05-05T04:27:53.913Z,6.47
2019-05-05T04:43:03.916Z,7.30
2019-05-05T04:58:13.562Z,4.10
2019-05-05T05:13:21.169Z,4.67
2019-05-05T05:28:31.037Z,4.00
2019-05-05T05:43:57.752Z,3.00
2019-05-05T05:59:05.636Z,2.33
2019-05-05T06:14:14.578Z,1.70
2019-05-05T06:29:23.890Z,1.80
2019-05-05T06:44:37.162Z,2.50
2019-05-05T06:59:45.232Z,4.10
2019-05-05T07:14:53.886Z,1.82
2019-05-05T07:30:01.790Z,3.00
2019-05-05T07:45:20.189Z,5.10
2019-05-05T08:00:19.308Z,1.40
2019-05-05T08:15:28.232Z,10.10
2019-05-05T08:30:45.799Z,1.37
2019-05-05T08:45:55.420Z,6.67
2019-05-05T09:01:04.387Z,1.50
2019-05-05T09:16:14.452Z,0.93
2019-05-05T09:31:23.910Z,1.40
2019-05-05T09:46:31.352Z,1.40
2019-05-05T10:01:39.453Z,1.87
2019-05-05T10:16:47.523Z,1.17
2019-05-05T10:31:55.313Z,1.40
2019-05-05T10:47:04.829Z,1.30
2019-05-05T11:02:14.163Z,1.30
2019-05-05T11:17:24.651Z,1.20
2019-05-05T11:32:50.053Z,1.17
2019-05-05T11:47:57.904Z,1.60
2019-05-05T12:03:06.411Z,1.60
2019-05-05T12:18:14.495Z,1.25
2019-05-05T12:33:24.310Z,1.37
2019-05-05T12:48:35.079Z,1.80
2019-05-05T13:03:43.792Z,1.70
2019-05-05T13:18:53.897Z,1.40
2019-05-05T13:34:04.291Z,2.20
2019-05-05T13:49:39.111Z,1.70
2019-05-05T14:04:46.936Z,1.80
2019-05-05T14:20:05.155Z,1.80
2019-05-05T14:35:28.287Z,2.33
2019-05-05T14:50:36.077Z,1.80
2019-05-05T15:05:54.677Z,1.60
2019-05-05T15:21:02.509Z,1.80
2019-05-05T15:36:10.596Z,1.50
2019-05-05T15:51:19.384Z,1.00
2019-05-05T16:06:27.639Z,1.30
2019-05-05T16:21:46.805Z,1.50
2019-05-05T16:36:57.082Z,1.55
2019-05-05T16:52:08.939Z,9.85
2019-05-05T17:07:16.724Z,4.03
2019-05-05T17:22:27.940Z,19.15
2019-05-05T17:37:38.436Z,43.45
2019-05-05T17:52:56.628Z,37.17
2019-05-05T18:08:04.472Z,37.47
2019-05-05T18:23:13.892Z,25.37
2019-05-05T18:38:23.433Z,2.40
2019-05-05T18:53:31.212Z,10.93
2019-05-05T19:08:54.228Z,81.53
2019-05-05T19:23:57.020Z,30.63
2019-05-05T19:39:06.693Z,9.13
2019-05-05T19:54:15.744Z,16.93
2019-05-05T20:09:24.813Z,45.13
2019-05-05T20:24:33.972Z,75.27
2019-05-05T20:39:43.959Z,30.40
2019-05-05T20:54:53.732Z,38.57
2019-05-05T21:10:00.973Z,38.30
2019-05-05T21:25:24.017Z,49.43
2019-05-05T21:40:41.307Z,62.67
2019-05-05T21:56:10.745Z,50.17
2019-05-05T22:11:18.267Z,52.43
2019-05-05T22:26:25.812Z,27.37
2019-05-05T22:41:33.772Z,33.37
2019-05-05T22:56:41.687Z,33.33
2019-05-05T23:11:49.245Z,24.13
2019-05-05T23:26:57.131Z,14.23
2019-05-05T23:42:04.580Z,22.60
2019-05-05T23:57:13.778Z,25.83
